createdAt,value
2018-12-15T00:00:18.379Z,9.30
2018-12-15T00:02:49.106Z,8.53
2018-12-15T00:05:19.859Z,9.10
2018-12-15T00:07:48.649Z,8.87
2018-12-15T00:10:17.426Z,8.80
2018-12-15T00:12:46.212Z,9.20
2018-12-15T00:15:15.038Z,8.87
2018-12-15T00:17:43.762Z,8.97
2018-12-15T00:20:12.593Z,8.47
2018-12-15T00:22:41.445Z,7.27
2018-12-15T00:25:10.215Z,7.87
2018-12-15T00:27:45.507Z,8.40
2018-12-15T00:30:14.867Z,7.60
2018-12-15T00:32:43.821Z,7.67
2018-12-15T00:35:12.712Z,7.63
2018-12-15T00:37:41.526Z,7.13
2018-12-15T00:40:10.357Z,7.67
2018-12-15T00:42:39.110Z,6.60
2018-12-15T00:45:08.015Z,6.80
2018-12-15T00:47:36.785Z,7.27
2018-12-15T00:50:05.641Z,6.30
2018-12-15T00:52:34.509Z,6.90
2018-12-15T00:55:03.361Z,6.90
2018-12-15T00:57:32.247Z,6.60
2018-12-15T01:00:01.119Z,6.63
2018-12-15T01:02:29.936Z,6.87
2018-12-15T01:04:58.702Z,5.90
2018-12-15T01:07:27.473Z,6.53
2018-12-15T01:09:56.297Z,6.27
2018-12-15T01:12:25.144Z,6.63
2018-12-15T01:14:53.941Z,6.30
2018-12-15T01:17:22.713Z,5.50
2018-12-15T01:19:51.496Z,5.93
2018-12-15T01:22:20.325Z,5.70
2018-12-15T01:24:49.500Z,6.10
2018-12-15T01:27:18.300Z,6.63
2018-12-15T01:29:47.125Z,6.30
2018-12-15T01:32:15.857Z,6.60
2018-12-15T01:34:44.695Z,6.70
2018-12-15T01:37:13.548Z,6.63
2018-12-15T01:39:42.253Z,6.33
2018-12-15T01:42:11.005Z,6.57
2018-12-15T01:44:40.142Z,7.00
2018-12-15T01:47:08.924Z,6.57
2018-12-15T01:49:37.802Z,6.90
2018-12-15T01:52:06.645Z,7.10
2018-12-15T01:54:35.500Z,7.43
2018-12-15T01:57:04.326Z,6.87
2018-12-15T01:59:33.170Z,7.67
2018-12-15T02:02:02.068Z,7.23
2018-12-15T02:04:30.957Z,7.00
2018-12-15T02:06:59.782Z,7.63
2018-12-15T02:09:28.566Z,7.57
2018-12-15T02:11:57.338Z,6.90
2018-12-15T02:14:26.057Z,7.87
2018-12-15T02:16:54.997Z,7.87
2018-12-15T02:19:23.834Z,7.57
2018-12-15T02:21:52.652Z,7.23
2018-12-15T02:24:21.378Z,7.20
2018-12-15T02:26:50.165Z,7.23
2018-12-15T02:29:18.916Z,7.67
2018-12-15T02:31:47.705Z,7.57
2018-12-15T02:34:16.525Z,7.73
2018-12-15T02:36:45.281Z,8.07
2018-12-15T02:39:14.196Z,7.80
2018-12-15T02:41:47.213Z,7.57
2018-12-15T02:44:13.908Z,7.93
2018-12-15T02:46:42.719Z,8.27
2018-12-15T02:49:11.696Z,7.53
2018-12-15T02:51:40.418Z,7.87
2018-12-15T02:54:09.239Z,7.33
2018-12-15T02:56:38.064Z,7.30
2018-12-15T02:59:06.870Z,7.10
2018-12-15T03:01:35.660Z,7.43
2018-12-15T03:04:04.501Z,6.90
2018-12-15T03:06:33.239Z,7.70
2018-12-15T03:09:02.084Z,7.50
2018-12-15T03:11:32.732Z,7.10
2018-12-15T03:14:01.529Z,7.20
2018-12-15T03:16:30.330Z,7.83
2018-12-15T03:19:10.171Z,7.43
2018-12-15T03:21:39.061Z,6.73
2018-12-15T03:24:07.829Z,6.83
2018-12-15T03:26:36.569Z,6.50
2018-12-15T03:29:07.294Z,6.00
2018-12-15T03:31:36.083Z,6.57
2018-12-15T03:34:04.877Z,6.33
2018-12-15T03:36:33.697Z,6.00
2018-12-15T03:39:02.695Z,6.13
2018-12-15T03:41:31.519Z,6.47
2018-12-15T03:44:00.211Z,6.10
2018-12-15T03:46:28.958Z,6.43
2018-12-15T03:48:57.718Z,6.40
2018-12-15T03:51:26.542Z,6.13
2018-12-15T03:53:55.391Z,5.77
2018-12-15T03:56:24.082Z,6.10
2018-12-15T03:58:52.849Z,6.17
2018-12-15T04:01:21.653Z,6.33
2018-12-15T04:03:50.481Z,6.43
2018-12-15T04:06:19.260Z,6.00
2018-12-15T04:08:48.031Z,6.77
2018-12-15T04:11:16.897Z,5.80
2018-12-15T04:13:45.627Z,5.87
2018-12-15T04:16:14.461Z,5.77
2018-12-15T04:18:43.608Z,6.13
2018-12-15T04:21:12.378Z,5.80
2018-12-15T04:23:41.344Z,7.23
2018-12-15T04:26:10.071Z,7.03
2018-12-15T04:28:38.804Z,7.03
2018-12-15T04:31:07.601Z,7.57
2018-12-15T04:33:36.326Z,7.23
2018-12-15T04:36:14.568Z,6.60
2018-12-15T04:38:43.432Z,5.77
2018-12-15T04:41:12.303Z,6.63
2018-12-15T04:43:41.065Z,7.10
2018-12-15T04:46:11.498Z,6.33
2018-12-15T04:48:41.202Z,6.13
2018-12-15T04:51:10.040Z,6.40
2018-12-15T04:53:38.730Z,6.23
2018-12-15T04:56:07.430Z,6.43
2018-12-15T04:58:36.198Z,6.47
2018-12-15T05:01:05.052Z,6.10
2018-12-15T05:03:33.976Z,6.13
2018-12-15T05:06:02.955Z,6.20
2018-12-15T05:08:31.813Z,6.67
2018-12-15T05:11:00.723Z,6.90
2018-12-15T05:13:36.000Z,6.60
2018-12-15T05:16:04.865Z,6.53
2018-12-15T05:18:33.744Z,5.70
2018-12-15T05:21:02.466Z,6.47
2018-12-15T05:23:31.286Z,6.23
2018-12-15T05:26:00.037Z,6.50
2018-12-15T05:28:28.837Z,5.90
2018-12-15T05:30:57.590Z,6.47
2018-12-15T05:33:26.330Z,6.47
2018-12-15T05:35:55.133Z,7.03
2018-12-15T05:38:23.966Z,6.40
2018-12-15T05:40:52.727Z,6.80
2018-12-15T05:43:21.484Z,6.40
2018-12-15T05:45:50.312Z,6.17
2018-12-15T05:48:24.952Z,6.50
2018-12-15T05:50:49.776Z,6.30
2018-12-15T05:53:18.612Z,6.60
2018-12-15T05:55:47.399Z,6.80
2018-12-15T05:58:16.166Z,6.57
2018-12-15T06:00:44.925Z,6.50
2018-12-15T06:03:13.740Z,6.23
2018-12-15T06:05:42.545Z,6.00
2018-12-15T06:08:11.510Z,6.93
2018-12-15T06:10:40.273Z,6.30
2018-12-15T06:13:08.983Z,6.70
2018-12-15T06:15:37.818Z,6.33
2018-12-15T06:18:06.643Z,6.67
2018-12-15T06:20:35.412Z,6.40
2018-12-15T06:23:04.700Z,6.27
2018-12-15T06:25:33.501Z,6.33
2018-12-15T06:28:02.206Z,6.77
2018-12-15T06:30:30.890Z,6.37
2018-12-15T06:32:59.589Z,6.90
2018-12-15T06:35:28.342Z,6.97
2018-12-15T06:37:57.170Z,7.00
2018-12-15T06:40:25.957Z,7.53
2018-12-15T06:42:55.369Z,7.07
2018-12-15T06:45:24.288Z,7.33
2018-12-15T06:47:52.981Z,6.57
2018-12-15T06:50:21.774Z,6.63
2018-12-15T06:52:50.462Z,6.07
2018-12-15T06:55:19.278Z,7.20
2018-12-15T06:57:48.082Z,6.30
2018-12-15T07:00:16.874Z,6.87
2018-12-15T07:02:45.619Z,6.60
2018-12-15T07:05:14.446Z,6.53
2018-12-15T07:07:43.194Z,7.27
2018-12-15T07:10:12.134Z,6.73
2018-12-15T07:12:40.930Z,6.13
2018-12-15T07:15:09.689Z,6.83
2018-12-15T07:17:38.522Z,7.40
2018-12-15T07:20:07.406Z,6.60
2018-12-15T07:22:36.290Z,6.83
2018-12-15T07:25:06.159Z,6.60
2018-12-15T07:27:34.897Z,6.87
2018-12-15T07:30:04.333Z,6.60
2018-12-15T07:32:33.089Z,6.50
2018-12-15T07:35:01.948Z,6.67
2018-12-15T07:37:30.675Z,7.23
2018-12-15T07:39:59.450Z,7.23
2018-12-15T07:42:28.186Z,6.83
2018-12-15T07:44:56.951Z,7.40
2018-12-15T07:47:25.652Z,7.50
2018-12-15T07:49:54.510Z,7.23
2018-12-15T07:52:23.373Z,11.47
2018-12-15T07:54:52.146Z,10.77
2018-12-15T07:57:20.966Z,19.00
2018-12-15T07:59:50.897Z,15.23
2018-12-15T08:02:19.769Z,10.53
2018-12-15T08:04:48.540Z,8.47
2018-12-15T08:07:17.450Z,7.90
2018-12-15T08:09:48.181Z,7.57
2018-12-15T08:12:22.317Z,7.43
2018-12-15T08:14:51.262Z,8.53
2018-12-15T08:17:20.041Z,7.23
2018-12-15T08:19:48.815Z,6.80
2018-12-15T08:22:17.639Z,6.93
2018-12-15T08:24:46.387Z,6.97
2018-12-15T08:27:15.177Z,7.50
2018-12-15T08:29:43.902Z,13.97
2018-12-15T08:32:12.874Z,12.60
2018-12-15T08:34:41.629Z,9.13
2018-12-15T08:37:10.454Z,8.50
2018-12-15T08:39:39.200Z,8.97
2018-12-15T08:42:08.021Z,8.10
2018-12-15T08:44:36.837Z,8.30
2018-12-15T08:47:05.677Z,8.03
2018-12-15T08:49:34.492Z,8.30
2018-12-15T08:52:03.268Z,7.77
2018-12-15T08:54:32.053Z,11.30
2018-12-15T08:57:00.965Z,11.33
2018-12-15T08:59:29.790Z,10.53
2018-12-15T09:01:58.603Z,7.53
2018-12-15T09:04:27.418Z,8.60
2018-12-15T09:06:56.132Z,7.73
2018-12-15T09:09:24.938Z,7.00
2018-12-15T09:11:53.749Z,7.00
2018-12-15T09:14:22.450Z,7.90
2018-12-15T09:16:51.297Z,8.00
2018-12-15T09:19:20.030Z,7.27
2018-12-15T09:21:48.821Z,6.80
2018-12-15T09:24:17.614Z,8.80
2018-12-15T09:26:46.417Z,7.20
2018-12-15T09:29:15.266Z,8.20
2018-12-15T09:31:44.082Z,9.27
2018-12-15T09:34:12.825Z,13.77
2018-12-15T09:36:41.604Z,13.13
2018-12-15T09:39:10.501Z,9.77
2018-12-15T09:41:39.195Z,11.97
2018-12-15T09:44:08.040Z,8.83
2018-12-15T09:46:36.894Z,11.03
2018-12-15T09:49:05.662Z,9.37
2018-12-15T09:51:34.472Z,9.10
2018-12-15T09:54:03.285Z,9.37
2018-12-15T09:56:33.154Z,13.83
2018-12-15T09:59:01.945Z,12.97
2018-12-15T10:01:30.751Z,13.43
2018-12-15T10:03:59.518Z,16.13
2018-12-15T10:06:28.340Z,9.67
2018-12-15T10:08:57.050Z,11.00
2018-12-15T10:11:25.885Z,7.60
2018-12-15T10:13:54.683Z,10.53
2018-12-15T10:16:23.479Z,17.77
2018-12-15T10:18:52.327Z,16.87
2018-12-15T10:21:21.125Z,16.40
2018-12-15T10:23:50.880Z,15.37
2018-12-15T10:26:19.598Z,9.37
2018-12-15T10:28:48.425Z,8.87
2018-12-15T10:31:22.626Z,8.07
2018-12-15T10:33:51.501Z,7.90
2018-12-15T10:36:20.336Z,7.00
2018-12-15T10:38:49.132Z,7.37
2018-12-15T10:41:17.929Z,8.17
2018-12-15T10:43:46.728Z,8.03
2018-12-15T10:46:15.547Z,7.53
2018-12-15T10:48:46.293Z,7.07
2018-12-15T10:51:15.203Z,7.53
2018-12-15T10:53:43.966Z,12.63
2018-12-15T10:56:12.716Z,8.47
2018-12-15T10:58:41.497Z,7.60
2018-12-15T11:01:15.554Z,7.80
2018-12-15T11:03:46.494Z,7.03
2018-12-15T11:06:15.377Z,10.23
2018-12-15T11:08:44.209Z,11.00
2018-12-15T11:11:12.909Z,7.87
2018-12-15T11:13:41.616Z,11.77
2018-12-15T11:16:10.659Z,14.47
2018-12-15T11:18:39.391Z,9.03
2018-12-15T11:21:08.218Z,9.47
2018-12-15T11:23:36.948Z,8.77
2018-12-15T11:26:05.756Z,11.17
2018-12-15T11:28:34.645Z,8.20
2018-12-15T11:31:03.478Z,10.33
2018-12-15T11:33:32.297Z,7.57
2018-12-15T11:36:01.156Z,7.57
2018-12-15T11:38:29.961Z,8.33
2018-12-15T11:40:58.797Z,7.77
2018-12-15T11:43:27.581Z,7.53
2018-12-15T11:45:56.978Z,6.97
2018-12-15T11:48:25.780Z,8.40
2018-12-15T11:50:54.554Z,7.47
2018-12-15T11:53:23.458Z,7.17
2018-12-15T11:55:52.334Z,7.17
2018-12-15T11:58:21.077Z,7.63
2018-12-15T12:00:49.953Z,7.40
2018-12-15T12:03:18.963Z,7.23
2018-12-15T12:05:47.831Z,7.33
2018-12-15T12:08:16.742Z,7.60
2018-12-15T12:10:45.744Z,6.77
2018-12-15T12:13:14.471Z,7.07
2018-12-15T12:15:43.277Z,6.87
2018-12-15T12:18:12.133Z,6.60
2018-12-15T12:20:40.965Z,7.33
2018-12-15T12:23:09.826Z,6.80
2018-12-15T12:25:40.593Z,6.77
2018-12-15T12:28:11.393Z,23.57
2018-12-15T12:30:40.186Z,28.87
2018-12-15T12:33:08.987Z,18.03
2018-12-15T12:35:37.802Z,9.93
2018-12-15T12:38:06.679Z,7.60
2018-12-15T12:40:35.418Z,6.93
2018-12-15T12:43:04.225Z,6.60
2018-12-15T12:45:33.025Z,7.47
2018-12-15T12:48:01.843Z,8.33
2018-12-15T12:50:32.441Z,7.87
2018-12-15T12:53:01.470Z,11.87
2018-12-15T12:55:30.354Z,20.47
2018-12-15T12:57:59.117Z,17.43
2018-12-15T13:00:27.933Z,12.43
2018-12-15T13:02:56.791Z,7.80
2018-12-15T13:05:25.605Z,7.87
2018-12-15T13:07:54.317Z,7.83
2018-12-15T13:10:23.097Z,9.57
2018-12-15T13:12:51.853Z,7.30
2018-12-15T13:15:20.751Z,7.63
2018-12-15T13:17:49.629Z,6.83
2018-12-15T13:20:18.438Z,6.70
2018-12-15T13:22:48.068Z,6.93
2018-12-15T13:25:16.878Z,6.77
2018-12-15T13:27:45.650Z,7.33
2018-12-15T13:30:14.397Z,7.27
2018-12-15T13:32:43.189Z,7.40
2018-12-15T13:35:11.961Z,7.07
2018-12-15T13:37:40.713Z,7.27
2018-12-15T13:40:09.661Z,7.57
2018-12-15T13:42:38.465Z,7.70
2018-12-15T13:45:07.380Z,7.30
2018-12-15T13:50:12.112Z,7.90
2018-12-15T13:52:40.914Z,7.80
2018-12-15T13:55:09.789Z,9.00
2018-12-15T13:57:38.537Z,9.70
2018-12-15T14:00:07.878Z,8.93
2018-12-15T14:02:36.686Z,9.20
2018-12-15T14:05:05.533Z,8.83
2018-12-15T14:07:34.348Z,8.57
2018-12-15T14:10:03.236Z,8.13
2018-12-15T14:12:32.023Z,7.97
2018-12-15T14:15:00.800Z,7.67
2018-12-15T14:17:29.545Z,8.63
2018-12-15T14:19:58.366Z,12.50
2018-12-15T14:22:27.175Z,15.47
2018-12-15T14:24:55.942Z,11.77
2018-12-15T14:27:24.757Z,11.10
2018-12-15T14:29:53.574Z,10.77
2018-12-15T14:32:22.393Z,9.27
2018-12-15T14:34:51.253Z,9.53
2018-12-15T14:37:20.071Z,8.97
2018-12-15T14:39:48.853Z,9.50
2018-12-15T14:42:17.627Z,10.33
2018-12-15T14:44:46.362Z,9.10
2018-12-15T14:47:15.150Z,8.40
2018-12-15T14:49:43.965Z,9.60
2018-12-15T14:52:12.703Z,8.27
2018-12-15T14:54:41.524Z,8.30
2018-12-15T14:57:10.353Z,12.50
2018-12-15T14:59:39.166Z,22.07
2018-12-15T15:02:07.963Z,16.67
2018-12-15T15:04:36.784Z,27.07
2018-12-15T15:07:05.559Z,16.43
2018-12-15T15:09:34.373Z,14.33
2018-12-15T15:12:03.155Z,18.20
2018-12-15T15:14:32.912Z,11.03
2018-12-15T15:17:01.766Z,10.30
2018-12-15T15:19:31.577Z,15.70
2018-12-15T15:22:00.448Z,11.50
2018-12-15T15:24:29.362Z,10.70
2018-12-15T15:26:58.090Z,12.13
2018-12-15T15:29:26.903Z,12.33
2018-12-15T15:31:55.647Z,10.07
2018-12-15T15:34:24.459Z,10.20
2018-12-15T15:36:53.318Z,10.90
2018-12-15T15:39:22.140Z,9.67
2018-12-15T15:41:50.926Z,9.43
2018-12-15T15:44:19.716Z,11.33
2018-12-15T15:46:48.755Z,9.77
2018-12-15T15:49:17.582Z,10.07
2018-12-15T15:51:46.431Z,9.47
2018-12-15T15:54:15.182Z,9.20
2018-12-15T15:56:43.997Z,9.13
2018-12-15T15:59:12.809Z,8.40
2018-12-15T16:01:42.793Z,9.00
2018-12-15T16:04:11.612Z,9.37
2018-12-15T16:06:40.380Z,11.93
2018-12-15T16:09:09.637Z,11.03
2018-12-15T16:11:38.495Z,10.13
2018-12-15T16:14:07.275Z,10.43
2018-12-15T16:16:36.089Z,9.37
2018-12-15T16:19:04.910Z,9.53
2018-12-15T16:21:33.711Z,9.90
2018-12-15T16:24:02.553Z,16.40
2018-12-15T16:26:31.348Z,16.20
2018-12-15T16:29:00.106Z,16.13
2018-12-15T16:31:28.919Z,23.20
2018-12-15T16:33:57.683Z,16.60
2018-12-15T16:36:26.516Z,12.17
2018-12-15T16:38:55.361Z,10.37
2018-12-15T16:41:24.102Z,9.30
2018-12-15T16:43:52.976Z,9.60
2018-12-15T16:46:21.775Z,9.77
2018-12-15T16:48:50.557Z,8.47
2018-12-15T16:51:19.390Z,8.97
2018-12-15T16:53:48.197Z,8.63
2018-12-15T16:56:17.075Z,9.20
2018-12-15T16:58:45.812Z,8.60
2018-12-15T17:01:14.626Z,8.60
2018-12-15T17:03:43.441Z,9.03
2018-12-15T17:06:12.275Z,9.00
2018-12-15T17:08:41.146Z,9.70
2018-12-15T17:11:09.920Z,8.67
2018-12-15T17:13:38.721Z,9.00
2018-12-15T17:16:10.782Z,9.23
2018-12-15T17:18:39.576Z,8.77
2018-12-15T17:21:08.381Z,11.57
2018-12-15T17:23:37.239Z,11.00
2018-12-15T17:26:06.049Z,9.67
2018-12-15T17:28:35.560Z,9.50
2018-12-15T17:31:04.362Z,9.80
2018-12-15T17:33:33.231Z,9.20
2018-12-15T17:36:02.088Z,11.67
2018-12-15T17:38:31.126Z,11.97
2018-12-15T17:40:59.876Z,11.80
2018-12-15T17:43:28.713Z,11.27
2018-12-15T17:45:57.563Z,11.97
2018-12-15T17:48:26.815Z,12.60
2018-12-15T17:50:55.686Z,11.83
2018-12-15T17:53:24.576Z,12.67
2018-12-15T17:55:53.681Z,12.77
2018-12-15T17:58:22.781Z,11.83
2018-12-15T18:00:51.574Z,12.90
2018-12-15T18:03:20.397Z,10.20
2018-12-15T18:05:49.301Z,11.63
2018-12-15T18:08:18.096Z,11.47
2018-12-15T18:10:46.926Z,10.90
2018-12-15T18:13:18.849Z,11.10
2018-12-15T18:15:47.691Z,11.37
2018-12-15T18:18:16.510Z,11.57
2018-12-15T18:20:45.286Z,11.17
2018-12-15T18:23:14.050Z,12.40
2018-12-15T18:25:42.858Z,11.57
2018-12-15T18:28:12.341Z,11.17
2018-12-15T18:30:41.118Z,11.13
2018-12-15T18:33:09.957Z,11.70
2018-12-15T18:35:38.791Z,10.40
2018-12-15T18:38:07.582Z,10.60
2018-12-15T18:40:37.456Z,9.63
2018-12-15T18:43:06.292Z,11.10
2018-12-15T18:45:35.181Z,10.03
2018-12-15T18:48:04.003Z,11.17
2018-12-15T18:50:32.784Z,10.90
2018-12-15T18:53:01.604Z,11.60
2018-12-15T18:55:30.417Z,11.07
2018-12-15T18:57:59.166Z,11.30
2018-12-15T19:00:27.982Z,10.70
2018-12-15T19:02:56.831Z,10.53
2018-12-15T19:05:25.581Z,11.60
2018-12-15T19:07:54.343Z,10.83
2018-12-15T19:10:23.194Z,10.73
2018-12-15T19:12:51.957Z,11.00
2018-12-15T19:15:20.816Z,11.30
2018-12-15T19:17:49.637Z,11.40
2018-12-15T19:20:18.549Z,12.00
2018-12-15T19:22:47.302Z,11.30
2018-12-15T19:25:16.234Z,11.90
2018-12-15T19:27:45.019Z,11.53
2018-12-15T19:30:13.855Z,12.77
2018-12-15T19:32:42.713Z,11.87
2018-12-15T19:35:11.590Z,11.73
2018-12-15T19:37:40.424Z,11.20
2018-12-15T19:40:09.341Z,12.17
2018-12-15T19:42:38.302Z,11.80
2018-12-15T19:45:07.687Z,11.50
2018-12-15T19:47:36.735Z,11.07
2018-12-15T19:50:06.042Z,11.27
2018-12-15T19:52:34.813Z,11.53
2018-12-15T19:55:04.772Z,12.53
2018-12-15T19:57:34.589Z,12.57
2018-12-15T20:00:03.518Z,12.40
2018-12-15T20:02:32.309Z,12.23
2018-12-15T20:05:01.194Z,12.87
2018-12-15T20:07:30.045Z,12.93
2018-12-15T20:09:58.876Z,12.97
2018-12-15T20:12:34.063Z,14.20
2018-12-15T20:15:02.966Z,12.43
2018-12-15T20:17:31.772Z,13.87
2018-12-15T20:20:00.589Z,14.10
2018-12-15T20:22:29.489Z,14.03
2018-12-15T20:24:58.339Z,15.43
2018-12-15T20:27:27.170Z,15.70
2018-12-15T20:29:55.984Z,16.33
2018-12-15T20:32:24.846Z,15.33
2018-12-15T20:34:53.690Z,15.43
2018-12-15T20:37:22.393Z,15.93
2018-12-15T20:39:51.273Z,15.97
2018-12-15T20:42:20.103Z,16.10
2018-12-15T20:44:49.078Z,17.10
2018-12-15T20:47:17.941Z,17.90
2018-12-15T20:49:46.773Z,17.63
2018-12-15T20:52:15.539Z,17.67
2018-12-15T20:54:44.393Z,18.33
2018-12-15T20:57:13.207Z,19.00
2018-12-15T20:59:42.177Z,18.83
2018-12-15T21:02:11.026Z,20.23
2018-12-15T21:04:39.981Z,19.33
2018-12-15T21:07:08.836Z,20.73
2018-12-15T21:09:37.653Z,20.13
2018-12-15T21:12:06.483Z,20.67
2018-12-15T21:14:35.276Z,21.30
2018-12-15T21:17:04.199Z,21.93
2018-12-15T21:19:32.959Z,22.37
2018-12-15T21:22:01.792Z,20.90
2018-12-15T21:24:31.672Z,21.43
2018-12-15T21:27:00.493Z,21.50
2018-12-15T21:29:29.406Z,21.70
2018-12-15T21:31:58.292Z,21.43
2018-12-15T21:34:27.093Z,21.73
2018-12-15T21:36:55.974Z,20.80
2018-12-15T21:39:24.992Z,21.03
2018-12-15T21:41:53.722Z,22.10
2018-12-15T21:44:22.549Z,20.37
2018-12-15T21:46:51.687Z,20.80
2018-12-15T21:49:20.517Z,20.37
2018-12-15T21:51:56.106Z,21.13
2018-12-15T21:54:20.385Z,20.80
2018-12-15T21:56:55.895Z,20.87
2018-12-15T21:59:24.681Z,21.37
2018-12-15T22:01:53.495Z,21.90
2018-12-15T22:04:22.855Z,20.10
2018-12-15T22:06:51.724Z,19.63
2018-12-15T22:09:20.581Z,20.80
2018-12-15T22:11:49.515Z,21.63
2018-12-15T22:14:18.238Z,20.57
2018-12-15T22:16:47.130Z,19.80
2018-12-15T22:19:15.875Z,20.20
2018-12-15T22:21:44.705Z,21.20
2018-12-15T22:24:13.456Z,20.67
2018-12-15T22:26:42.287Z,21.07
2018-12-15T22:29:11.128Z,20.47
2018-12-15T22:31:39.986Z,19.73
2018-12-15T22:34:08.794Z,20.17
2018-12-15T22:36:37.836Z,20.10
2018-12-15T22:39:07.473Z,19.67
2018-12-15T22:41:36.190Z,20.73
2018-12-15T22:44:04.988Z,20.83
2018-12-15T22:46:33.841Z,19.80
2018-12-15T22:49:02.704Z,20.33
2018-12-15T22:51:31.563Z,21.50
2018-12-15T22:54:00.321Z,22.17
2018-12-15T22:56:29.074Z,20.77
2018-12-15T22:58:57.795Z,22.07
2018-12-15T23:01:26.662Z,21.77
2018-12-15T23:03:55.517Z,21.53
2018-12-15T23:06:24.300Z,22.37
2018-12-15T23:08:53.171Z,22.83
2018-12-15T23:11:22.215Z,21.40
2018-12-15T23:13:51.176Z,21.03
2018-12-15T23:16:20.070Z,21.53
2018-12-15T23:18:48.901Z,22.67
2018-12-15T23:21:17.928Z,21.90
2018-12-15T23:23:46.774Z,21.70
2018-12-15T23:26:15.581Z,21.80
2018-12-15T23:28:44.396Z,21.73
2018-12-15T23:31:13.135Z,20.40
2018-12-15T23:33:41.976Z,22.07
2018-12-15T23:36:10.765Z,21.53
2018-12-15T23:38:39.488Z,21.67
2018-12-15T23:41:08.333Z,23.13
2018-12-15T23:43:37.090Z,22.63
2018-12-15T23:46:05.828Z,21.10
2018-12-15T23:48:34.736Z,21.87
2018-12-15T23:51:03.593Z,20.93
2018-12-15T23:53:32.346Z,22.80
2018-12-15T23:56:01.207Z,21.20
2018-12-15T23:58:30.036Z,22.40
